createdAt,value
2023-02-08T00:00:06.790Z,28.70
2023-02-08T00:02:33.599Z,22.40
2023-02-08T00:05:00.402Z,29.27
2023-02-08T00:07:27.295Z,28.80
2023-02-08T00:09:54.095Z,21.65
2023-02-08T00:12:20.798Z,27.67
2023-02-08T00:14:47.623Z,31.17
2023-02-08T00:17:14.391Z,21.83
2023-02-08T00:19:41.199Z,27.10
2023-02-08T00:22:07.977Z,17.98
2023-02-08T00:24:34.667Z,24.33
2023-02-08T00:27:01.437Z,23.85
2023-02-08T00:29:28.134Z,23.48
2023-02-08T00:31:54.892Z,22.75
2023-02-08T00:34:21.695Z,26.75
2023-02-08T00:36:48.519Z,25.98
2023-02-08T00:39:15.297Z,24.13
2023-02-08T00:41:42.001Z,24.42
2023-02-08T00:44:08.692Z,27.38
2023-02-08T00:46:35.452Z,24.60
2023-02-08T00:49:02.202Z,27.33
2023-02-08T00:51:29.236Z,27.70
2023-02-08T00:53:55.921Z,25.52
2023-02-08T00:56:22.655Z,29.00
2023-02-08T00:58:49.417Z,25.40
2023-02-08T01:01:16.510Z,30.85
2023-02-08T01:03:43.633Z,23.70
2023-02-08T01:06:15.896Z,21.85
2023-02-08T01:08:42.817Z,25.70
2023-02-08T01:11:13.086Z,22.33
2023-02-08T01:13:41.156Z,25.95
2023-02-08T01:16:15.065Z,27.98
2023-02-08T01:18:45.230Z,24.05
2023-02-08T01:21:14.823Z,25.17
2023-02-08T01:23:42.468Z,27.25
2023-02-08T01:26:10.123Z,26.50
2023-02-08T01:28:37.019Z,26.30
2023-02-08T01:31:08.820Z,23.20
2023-02-08T01:33:35.912Z,27.48
2023-02-08T01:36:03.251Z,23.45
2023-02-08T01:38:30.167Z,21.10
2023-02-08T01:40:56.984Z,24.70
2023-02-08T01:43:29.547Z,29.90
2023-02-08T01:45:56.430Z,22.63
2023-02-08T01:48:40.852Z,25.05
2023-02-08T01:51:21.404Z,23.25
2023-02-08T01:53:50.661Z,20.63
2023-02-08T01:56:23.756Z,22.88
2023-02-08T01:58:56.519Z,21.27
2023-02-08T02:01:24.785Z,27.38
2023-02-08T02:03:51.755Z,17.55
2023-02-08T02:06:27.304Z,21.20
2023-02-08T02:09:17.437Z,22.83
2023-02-08T02:11:44.601Z,22.02
2023-02-08T02:14:12.106Z,21.77
2023-02-08T02:16:39.291Z,19.75
2023-02-08T02:19:23.211Z,22.70
2023-02-08T02:22:29.425Z,21.17
2023-02-08T02:25:20.513Z,22.95
2023-02-08T02:28:18.913Z,19.55
2023-02-08T02:31:11.525Z,20.75
2023-02-08T02:33:44.886Z,16.13
2023-02-08T02:36:33.139Z,26.08
2023-02-08T02:39:08.716Z,17.55
2023-02-08T02:42:16.216Z,18.45
2023-02-08T02:44:58.752Z,18.83
2023-02-08T02:47:41.481Z,21.55
2023-02-08T02:50:13.932Z,14.55
2023-02-08T02:52:56.567Z,21.50
2023-02-08T02:55:25.654Z,19.98
2023-02-08T02:57:55.128Z,18.88
2023-02-08T03:00:25.783Z,22.63
2023-02-08T03:02:53.026Z,30.92
2023-02-08T03:05:19.818Z,26.30
2023-02-08T03:08:08.197Z,20.85
2023-02-08T03:10:59.511Z,21.83
2023-02-08T03:13:46.492Z,17.10
2023-02-08T03:16:32.051Z,21.95
2023-02-08T03:19:28.467Z,20.80
2023-02-08T03:22:00.957Z,25.35
2023-02-08T03:24:29.486Z,23.20
2023-02-08T03:27:14.192Z,19.35
2023-02-08T03:29:54.168Z,23.25
2023-02-08T03:32:24.171Z,19.63
2023-02-08T03:35:16.384Z,15.73
2023-02-08T03:37:50.276Z,20.55
2023-02-08T03:40:26.388Z,22.40
2023-02-08T03:42:56.375Z,20.92
2023-02-08T03:45:43.428Z,23.70
2023-02-08T03:48:13.935Z,21.85
2023-02-08T03:50:43.929Z,16.05
2023-02-08T03:53:11.476Z,14.65
2023-02-08T03:55:40.896Z,16.75
2023-02-08T03:58:28.785Z,24.58
2023-02-08T04:01:03.364Z,15.90
2023-02-08T04:03:32.369Z,15.82
2023-02-08T04:05:59.265Z,16.73
2023-02-08T04:08:26.608Z,16.15
2023-02-08T04:10:53.537Z,19.05
2023-02-08T04:13:20.358Z,20.10
2023-02-08T04:15:47.227Z,21.48
2023-02-08T04:18:14.254Z,19.67
2023-02-08T04:20:41.127Z,19.70
2023-02-08T04:23:08.052Z,18.83
2023-02-08T04:25:34.796Z,17.95
2023-02-08T04:28:01.532Z,27.30
2023-02-08T04:30:28.508Z,16.58
2023-02-08T04:32:55.255Z,16.50
2023-02-08T04:35:22.000Z,22.35
2023-02-08T04:37:48.779Z,20.50
2023-02-08T04:40:15.514Z,18.38
2023-02-08T04:42:42.280Z,24.23
2023-02-08T04:45:09.583Z,25.33
2023-02-08T04:47:36.545Z,16.77
2023-02-08T04:50:03.536Z,19.02
2023-02-08T04:52:30.287Z,24.58
2023-02-08T04:54:57.086Z,25.00
2023-02-08T04:57:23.787Z,24.35
2023-02-08T04:59:50.472Z,18.05
2023-02-08T05:02:17.201Z,17.05
2023-02-08T05:04:44.268Z,23.23
2023-02-08T05:07:10.969Z,24.73
2023-02-08T05:09:37.693Z,18.55
2023-02-08T05:12:04.716Z,16.67
2023-02-08T05:14:31.435Z,23.05
2023-02-08T05:16:58.179Z,18.13
2023-02-08T05:19:24.855Z,23.35
2023-02-08T05:21:51.553Z,21.30
2023-02-08T05:24:18.467Z,22.95
2023-02-08T05:26:45.207Z,24.80
2023-02-08T05:29:11.895Z,22.35
2023-02-08T05:31:38.759Z,22.80
2023-02-08T05:34:05.615Z,21.92
2023-02-08T05:36:32.529Z,23.73
2023-02-08T05:38:59.252Z,23.23
2023-02-08T05:41:26.090Z,21.67
2023-02-08T05:43:52.867Z,25.02
2023-02-08T05:46:19.680Z,23.98
2023-02-08T05:48:46.482Z,26.27
2023-02-08T05:51:13.263Z,23.05
2023-02-08T05:53:40.073Z,25.92
2023-02-08T05:56:07.128Z,24.75
2023-02-08T05:58:34.257Z,25.35
2023-02-08T06:01:01.104Z,34.83
2023-02-08T06:03:27.836Z,24.83
2023-02-08T06:05:54.599Z,24.60
2023-02-08T06:08:21.311Z,28.48
2023-02-08T06:10:49.275Z,27.05
2023-02-08T06:13:16.064Z,31.65
2023-02-08T06:15:43.060Z,27.55
2023-02-08T06:18:09.811Z,23.60
2023-02-08T06:20:36.984Z,26.48
2023-02-08T06:23:03.911Z,21.80
2023-02-08T06:25:30.953Z,26.42
2023-02-08T06:27:57.779Z,30.63
2023-02-08T06:30:24.597Z,28.17
2023-02-08T06:32:51.397Z,22.75
2023-02-08T06:35:18.199Z,33.10
2023-02-08T06:37:44.915Z,26.50
2023-02-08T06:40:11.750Z,26.05
2023-02-08T06:42:38.475Z,25.40
2023-02-08T06:45:05.966Z,27.45
2023-02-08T06:47:32.773Z,25.17
2023-02-08T06:49:59.552Z,27.58
2023-02-08T06:52:26.339Z,31.77
2023-02-08T06:54:53.110Z,30.33
2023-02-08T06:57:19.870Z,29.67
2023-02-08T06:59:46.667Z,25.67
2023-02-08T07:02:18.545Z,31.13
2023-02-08T07:04:48.363Z,34.17
2023-02-08T07:07:16.655Z,28.15
2023-02-08T07:09:43.469Z,32.97
2023-02-08T07:12:10.618Z,63.47
2023-02-08T07:14:40.801Z,58.33
2023-02-08T07:17:07.787Z,54.88
2023-02-08T07:19:34.546Z,53.38
2023-02-08T07:22:07.972Z,51.78
2023-02-08T07:24:39.911Z,40.08
2023-02-08T07:27:09.853Z,49.78
2023-02-08T07:29:37.762Z,35.72
2023-02-08T07:32:05.823Z,45.08
2023-02-08T07:34:37.620Z,37.35
2023-02-08T07:37:05.066Z,38.67
2023-02-08T07:39:31.990Z,32.38
2023-02-08T07:41:59.454Z,38.25
2023-02-08T07:44:26.263Z,41.78
2023-02-08T07:46:53.217Z,49.03
2023-02-08T07:49:20.100Z,34.42
2023-02-08T07:51:46.873Z,38.47
2023-02-08T07:54:13.610Z,51.33
2023-02-08T07:56:40.436Z,34.00
2023-02-08T07:59:07.236Z,34.28
2023-02-08T08:01:34.030Z,37.28
2023-02-08T08:04:00.869Z,31.65
2023-02-08T08:06:27.804Z,36.75
2023-02-08T08:08:54.606Z,31.10
2023-02-08T08:11:22.342Z,34.10
2023-02-08T08:13:49.744Z,31.90
2023-02-08T08:16:16.739Z,34.75
2023-02-08T08:18:43.934Z,34.28
2023-02-08T08:21:10.920Z,42.17
2023-02-08T08:23:37.983Z,36.88
2023-02-08T08:26:16.721Z,36.28
2023-02-08T08:28:44.452Z,33.10
2023-02-08T08:31:14.193Z,43.88
2023-02-08T08:33:41.497Z,33.28
2023-02-08T08:36:09.150Z,33.15
2023-02-08T08:38:37.275Z,31.95
2023-02-08T08:41:08.346Z,26.30
2023-02-08T08:43:35.202Z,29.45
2023-02-08T08:46:02.065Z,28.52
2023-02-08T08:48:28.918Z,27.25
2023-02-08T08:50:55.693Z,25.73
2023-02-08T08:53:22.490Z,28.60
2023-02-08T08:55:49.194Z,23.40
2023-02-08T08:58:15.926Z,21.98
2023-02-08T09:00:42.977Z,34.53
2023-02-08T09:03:09.998Z,25.85
2023-02-08T09:05:36.954Z,26.23
2023-02-08T09:08:04.298Z,29.77
2023-02-08T09:10:35.548Z,24.70
2023-02-08T09:13:02.811Z,29.20
2023-02-08T09:15:32.192Z,33.80
2023-02-08T09:17:59.373Z,24.13
2023-02-08T09:20:26.190Z,25.25
2023-02-08T09:22:53.686Z,23.20
2023-02-08T09:25:20.467Z,26.35
2023-02-08T09:27:47.188Z,26.73
2023-02-08T09:30:14.164Z,26.10
2023-02-08T09:32:41.182Z,24.52
2023-02-08T09:35:08.190Z,23.65
2023-02-08T09:37:34.947Z,22.70
2023-02-08T09:40:02.158Z,27.48
2023-02-08T09:42:42.359Z,22.20
2023-02-08T09:45:41.318Z,24.98
2023-02-08T09:48:24.714Z,22.85
2023-02-08T09:50:54.518Z,27.05
2023-02-08T09:53:35.154Z,19.83
2023-02-08T09:56:06.214Z,21.20
2023-02-08T09:58:45.672Z,21.27
2023-02-08T10:01:34.726Z,28.60
2023-02-08T10:04:04.473Z,24.58
2023-02-08T10:06:31.505Z,19.85
2023-02-08T10:09:04.839Z,17.17
2023-02-08T10:11:50.392Z,19.83
2023-02-08T10:14:29.283Z,18.42
2023-02-08T10:17:04.820Z,17.80
2023-02-08T10:19:50.076Z,17.58
2023-02-08T10:22:41.063Z,16.23
2023-02-08T10:25:10.608Z,16.75
2023-02-08T10:27:51.157Z,20.42
2023-02-08T10:30:45.743Z,15.25
2023-02-08T10:33:17.780Z,19.98
2023-02-08T10:35:50.088Z,13.73
2023-02-08T10:38:19.903Z,26.05
2023-02-08T10:40:52.352Z,18.45
2023-02-08T10:43:38.094Z,21.43
2023-02-08T10:46:08.347Z,16.20
2023-02-08T10:49:01.364Z,17.13
2023-02-08T10:51:29.851Z,18.20
2023-02-08T10:53:57.595Z,16.93
2023-02-08T10:56:30.380Z,17.70
2023-02-08T10:58:58.458Z,16.10
2023-02-08T11:01:26.381Z,17.40
2023-02-08T11:04:06.650Z,15.30
2023-02-08T11:06:33.526Z,12.57
2023-02-08T11:09:00.287Z,19.33
2023-02-08T11:11:29.635Z,13.00
2023-02-08T11:14:10.923Z,13.13
2023-02-08T11:16:38.425Z,15.13
2023-02-08T11:19:08.015Z,15.60
2023-02-08T11:21:38.703Z,15.50
2023-02-08T11:24:29.995Z,16.00
2023-02-08T11:26:56.703Z,15.57
2023-02-08T11:29:26.527Z,14.40
2023-02-08T11:32:02.206Z,14.50
2023-02-08T11:34:38.909Z,14.70
2023-02-08T11:37:23.236Z,20.83
2023-02-08T11:39:54.317Z,15.77
2023-02-08T11:42:36.138Z,13.80
2023-02-08T11:45:04.834Z,13.77
2023-02-08T11:47:34.225Z,17.70
2023-02-08T11:50:04.753Z,15.40
2023-02-08T11:52:36.636Z,14.63
2023-02-08T11:55:29.040Z,14.40
2023-02-08T11:57:58.869Z,17.90
2023-02-08T12:00:37.459Z,16.17
2023-02-08T12:03:14.184Z,14.60
2023-02-08T12:06:07.593Z,15.37
2023-02-08T12:08:48.644Z,17.63
2023-02-08T12:11:53.336Z,15.13
2023-02-08T12:14:38.108Z,17.97
2023-02-08T12:17:15.756Z,19.93
2023-02-08T12:20:04.284Z,15.97
2023-02-08T12:22:31.466Z,15.53
2023-02-08T12:25:19.337Z,15.33
2023-02-08T12:27:53.621Z,15.60
2023-02-08T12:30:32.616Z,17.73
2023-02-08T12:33:05.525Z,17.10
2023-02-08T12:36:01.817Z,18.43
2023-02-08T12:39:07.848Z,16.37
2023-02-08T12:42:12.356Z,14.93
2023-02-08T12:45:23.150Z,16.53
2023-02-08T12:48:04.647Z,13.00
2023-02-08T12:50:49.681Z,16.27
2023-02-08T12:53:39.749Z,13.33
2023-02-08T12:56:13.096Z,13.57
2023-02-08T12:58:56.872Z,15.20
2023-02-08T13:01:43.351Z,16.73
2023-02-08T13:04:22.548Z,13.50
2023-02-08T13:06:56.045Z,15.27
2023-02-08T13:09:35.223Z,17.87
2023-02-08T13:12:15.100Z,16.13
2023-02-08T13:14:52.544Z,16.80
2023-02-08T13:17:26.072Z,16.20
2023-02-08T13:20:01.226Z,12.30
2023-02-08T13:22:31.823Z,13.33
2023-02-08T13:25:07.503Z,15.50
2023-02-08T13:27:35.135Z,13.07
2023-02-08T13:30:02.526Z,14.90
2023-02-08T13:32:44.174Z,16.47
2023-02-08T13:35:16.005Z,17.87
2023-02-08T13:37:43.001Z,15.50
2023-02-08T13:40:28.337Z,20.07
2023-02-08T13:43:34.813Z,21.23
2023-02-08T13:46:03.775Z,16.27
2023-02-08T13:48:43.318Z,20.58
2023-02-08T13:51:28.650Z,15.45
2023-02-08T13:53:55.436Z,20.10
2023-02-08T13:56:40.778Z,21.13
2023-02-08T13:59:38.555Z,18.15
2023-02-08T14:02:22.162Z,18.77
2023-02-08T14:04:50.949Z,21.42
2023-02-08T14:07:44.819Z,16.85
2023-02-08T14:10:21.209Z,23.13
2023-02-08T14:12:50.693Z,17.52
2023-02-08T14:15:17.364Z,18.15
2023-02-08T14:17:50.139Z,15.55
2023-02-08T14:20:28.086Z,22.38
2023-02-08T14:22:58.371Z,16.90
2023-02-08T14:25:29.252Z,18.20
2023-02-08T14:28:02.122Z,15.60
2023-02-08T14:30:32.517Z,18.02
2023-02-08T14:33:06.310Z,21.33
2023-02-08T14:35:39.183Z,18.70
2023-02-08T14:38:24.359Z,17.17
2023-02-08T14:40:59.873Z,18.30
2023-02-08T14:43:36.234Z,15.20
2023-02-08T14:46:43.141Z,20.08
2023-02-08T14:49:15.878Z,20.83
2023-02-08T14:51:50.041Z,20.40
2023-02-08T14:54:46.562Z,22.05
2023-02-08T14:57:25.778Z,20.55
2023-02-08T14:59:53.843Z,20.33
2023-02-08T15:02:23.412Z,21.15
2023-02-08T15:04:50.207Z,22.48
2023-02-08T15:07:19.928Z,17.05
2023-02-08T15:09:47.134Z,17.48
2023-02-08T15:12:19.978Z,20.05
2023-02-08T15:14:46.832Z,24.23
2023-02-08T15:17:29.439Z,18.10
2023-02-08T15:19:57.073Z,24.13
2023-02-08T15:22:26.898Z,18.35
2023-02-08T15:25:13.299Z,20.13
2023-02-08T15:27:48.986Z,19.10
2023-02-08T15:30:46.328Z,20.52
2023-02-08T15:33:21.190Z,24.50
2023-02-08T15:35:58.049Z,17.08
2023-02-08T15:38:25.000Z,27.20
2023-02-08T15:41:06.527Z,21.33
2023-02-08T15:43:33.859Z,24.95
2023-02-08T15:46:03.772Z,22.88
2023-02-08T15:48:32.572Z,21.27
2023-02-08T15:51:01.016Z,17.13
2023-02-08T15:53:29.008Z,21.00
2023-02-08T15:55:59.576Z,20.08
2023-02-08T15:58:45.303Z,24.55
2023-02-08T16:01:22.232Z,20.42
2023-02-08T16:03:59.546Z,22.70
2023-02-08T16:06:30.058Z,20.38
2023-02-08T16:09:01.153Z,21.33
2023-02-08T16:11:33.028Z,21.67
2023-02-08T16:14:02.216Z,19.38
2023-02-08T16:16:42.982Z,18.85
2023-02-08T16:19:30.179Z,19.80
2023-02-08T16:22:17.095Z,18.02
2023-02-08T16:24:46.827Z,20.58
2023-02-08T16:27:31.826Z,24.70
2023-02-08T16:29:59.513Z,18.15
2023-02-08T16:32:36.901Z,20.67
2023-02-08T16:35:37.945Z,18.10
2023-02-08T16:38:10.048Z,18.45
2023-02-08T16:41:12.729Z,18.05
2023-02-08T16:43:47.232Z,20.20
2023-02-08T16:46:21.482Z,21.45
2023-02-08T16:48:56.999Z,19.90
2023-02-08T16:51:34.481Z,22.17
2023-02-08T16:54:06.966Z,16.27
2023-02-08T16:56:37.728Z,21.95
2023-02-08T16:59:05.123Z,17.00
2023-02-08T17:01:33.275Z,15.70
2023-02-08T17:04:00.307Z,19.77
2023-02-08T17:06:38.284Z,21.75
2023-02-08T17:09:08.232Z,21.00
2023-02-08T17:11:35.687Z,20.45
2023-02-08T17:14:02.700Z,20.38
2023-02-08T17:16:30.587Z,15.98
2023-02-08T17:19:00.150Z,22.45
2023-02-08T17:21:29.141Z,26.40
2023-02-08T17:23:56.996Z,19.63
2023-02-08T17:26:29.589Z,20.88
2023-02-08T17:28:59.048Z,18.38
2023-02-08T17:31:28.061Z,18.35
2023-02-08T17:33:55.619Z,22.27
2023-02-08T17:36:22.369Z,19.92
2023-02-08T17:38:49.174Z,24.02
2023-02-08T17:41:21.148Z,20.45
2023-02-08T17:43:53.206Z,19.88
2023-02-08T17:46:23.527Z,25.80
2023-02-08T17:48:50.789Z,25.00
2023-02-08T17:51:20.236Z,26.98
2023-02-08T17:53:47.641Z,23.13
2023-02-08T17:56:18.037Z,20.35
2023-02-08T17:58:45.195Z,23.70
2023-02-08T18:01:17.465Z,20.40
2023-02-08T18:03:45.913Z,23.88
2023-02-08T18:06:13.472Z,25.33
2023-02-08T18:08:40.806Z,20.98
2023-02-08T18:11:15.912Z,23.55
2023-02-08T18:13:42.667Z,20.52
2023-02-08T18:16:15.312Z,21.50
2023-02-08T18:18:42.530Z,22.52
2023-02-08T18:21:14.471Z,28.00
2023-02-08T18:23:42.632Z,22.88
2023-02-08T18:26:12.474Z,22.02
2023-02-08T18:28:39.328Z,29.42
2023-02-08T18:31:12.291Z,22.42
2023-02-08T18:33:39.087Z,26.58
2023-02-08T18:36:06.570Z,21.70
2023-02-08T18:38:33.750Z,26.45
2023-02-08T18:41:01.666Z,29.48
2023-02-08T18:43:29.067Z,25.67
2023-02-08T18:46:05.106Z,31.00
2023-02-08T18:48:32.462Z,30.65
2023-02-08T18:51:02.787Z,32.25
2023-02-08T18:53:31.934Z,26.98
2023-02-08T18:56:00.689Z,22.13
2023-02-08T18:58:27.942Z,23.05
2023-02-08T19:00:55.115Z,23.13
2023-02-08T19:03:22.576Z,26.98
2023-02-08T19:05:49.588Z,21.63
2023-02-08T19:08:16.521Z,24.67
2023-02-08T19:10:43.550Z,24.85
2023-02-08T19:13:10.574Z,23.80
2023-02-08T19:15:38.703Z,24.60
2023-02-08T19:18:07.694Z,26.05
2023-02-08T19:20:38.137Z,29.88
2023-02-08T19:23:06.180Z,26.58
2023-02-08T19:25:37.250Z,34.33
2023-02-08T19:28:04.998Z,33.45
2023-02-08T19:30:31.831Z,36.67
2023-02-08T19:32:58.628Z,33.72
2023-02-08T19:35:25.444Z,36.38
2023-02-08T19:37:52.676Z,36.55
2023-02-08T19:40:20.137Z,36.13
2023-02-08T19:42:46.891Z,39.72
2023-02-08T19:45:14.357Z,52.10
2023-02-08T19:47:51.125Z,38.20
2023-02-08T19:50:18.678Z,41.22
2023-02-08T19:52:45.461Z,34.80
2023-02-08T19:55:12.216Z,36.53
2023-02-08T19:57:40.085Z,36.58
2023-02-08T20:00:17.636Z,32.40
2023-02-08T20:02:49.630Z,32.15
2023-02-08T20:05:16.489Z,31.52
2023-02-08T20:07:43.235Z,29.13
2023-02-08T20:10:10.382Z,28.73
2023-02-08T20:12:37.209Z,30.13
2023-02-08T20:15:04.216Z,31.42
2023-02-08T20:17:30.907Z,34.67
2023-02-08T20:19:57.688Z,27.35
2023-02-08T20:22:24.412Z,33.78
2023-02-08T20:24:51.338Z,34.40
2023-02-08T20:27:18.363Z,51.28
2023-02-08T20:29:45.301Z,43.75
2023-02-08T20:32:12.197Z,46.30
2023-02-08T20:34:42.660Z,41.78
2023-02-08T20:37:13.990Z,41.60
2023-02-08T20:39:40.804Z,48.97
2023-02-08T20:42:07.618Z,60.80
2023-02-08T20:44:34.557Z,83.53
2023-02-08T20:47:01.415Z,113.60
2023-02-08T20:49:29.390Z,92.75
2023-02-08T20:51:56.178Z,79.15
2023-02-08T20:54:26.509Z,45.95
2023-02-08T20:56:53.990Z,48.92
2023-02-08T20:59:21.370Z,42.35
2023-02-08T21:01:48.745Z,39.08
2023-02-08T21:04:17.087Z,31.88
2023-02-08T21:06:45.942Z,27.75
2023-02-08T21:09:14.907Z,32.55
2023-02-08T21:11:41.887Z,34.40
2023-02-08T21:14:09.201Z,27.88
2023-02-08T21:16:36.014Z,37.00
2023-02-08T21:19:02.739Z,36.03
2023-02-08T21:21:29.545Z,31.40
2023-02-08T21:23:57.824Z,34.58
2023-02-08T21:26:25.796Z,34.17
2023-02-08T21:28:54.045Z,34.47
2023-02-08T21:31:22.198Z,34.42
2023-02-08T21:33:49.945Z,34.33
2023-02-08T21:36:20.418Z,32.15
2023-02-08T21:38:47.424Z,33.35
2023-02-08T21:41:20.443Z,31.38
2023-02-08T21:43:48.135Z,31.17
2023-02-08T21:46:15.838Z,33.05
2023-02-08T21:49:01.948Z,34.33
2023-02-08T21:51:47.117Z,30.92
2023-02-08T21:54:36.054Z,24.88
2023-02-08T21:57:05.388Z,24.98
2023-02-08T21:59:37.185Z,21.92
2023-02-08T22:02:05.851Z,23.05
2023-02-08T22:04:33.939Z,25.85
2023-02-08T22:07:01.228Z,25.63
2023-02-08T22:09:29.158Z,30.23
2023-02-08T22:11:56.695Z,20.23
2023-02-08T22:14:23.751Z,26.42
2023-02-08T22:16:50.638Z,22.02
2023-02-08T22:19:17.459Z,20.60
2023-02-08T22:21:44.443Z,28.00
2023-02-08T22:24:11.216Z,25.23
2023-02-08T22:26:38.018Z,29.42
2023-02-08T22:29:04.756Z,32.22
2023-02-08T22:31:31.621Z,31.90
2023-02-08T22:33:58.514Z,26.75
2023-02-08T22:36:25.216Z,29.73
2023-02-08T22:38:51.979Z,43.83
2023-02-08T22:41:19.236Z,32.78
2023-02-08T22:43:46.032Z,38.97
2023-02-08T22:46:13.127Z,36.72
2023-02-08T22:48:40.634Z,33.53
2023-02-08T22:51:14.404Z,31.02
2023-02-08T22:53:41.443Z,32.13
2023-02-08T22:56:08.221Z,30.05
2023-02-08T22:58:35.477Z,35.78
2023-02-08T23:01:02.245Z,40.97
2023-02-08T23:03:29.148Z,32.83
2023-02-08T23:05:56.006Z,37.17
2023-02-08T23:08:22.809Z,29.98
2023-02-08T23:10:49.918Z,33.28
2023-02-08T23:13:16.767Z,31.70
2023-02-08T23:15:44.836Z,28.98
2023-02-08T23:18:11.838Z,38.17
2023-02-08T23:20:40.469Z,34.92
2023-02-08T23:23:07.985Z,35.80
2023-02-08T23:25:39.718Z,32.42
2023-02-08T23:28:08.274Z,34.30
2023-02-08T23:30:35.160Z,31.48
2023-02-08T23:33:02.011Z,36.20
2023-02-08T23:35:28.752Z,30.60
2023-02-08T23:37:55.538Z,35.65
2023-02-08T23:40:22.398Z,30.90
2023-02-08T23:42:49.099Z,22.30
2023-02-08T23:45:16.097Z,25.25
2023-02-08T23:47:42.842Z,36.90
2023-02-08T23:50:10.538Z,28.40
2023-02-08T23:52:37.586Z,34.20
2023-02-08T23:55:05.715Z,37.40
2023-02-08T23:57:34.082Z,32.13
